Time;durP1;ratioP1;P1;durP2;ratioP2;P2;SDS_P1;SDS_P2;PMS_P1;PMS_P2;Temp;Humidity;BMP_temperature;BMP_pressure;BME280_temperature;BME280_humidity;BME280_pressure;Samples;Min_cycle;Max_cycle;Signal;HPM_P1;HPM_P2
2022/03/14 00:01:16;;;;;;;12.55;6.75;;;9.40;96.40;;;;;;5025967;28;20029;-58
2022/03/14 00:03:50;;;;;;;10.73;7.30;;;9.40;97.10;;;;;;5030751;28;20052;-59
2022/03/14 00:06:16;;;;;;;11.90;7.93;;;9.40;97.90;;;;;;5029467;28;20037;-58
2022/03/14 00:08:42;;;;;;;15.82;9.07;;;9.30;98.30;;;;;;5024368;28;20042;-59
2022/03/14 00:11:08;;;;;;;18.70;10.40;;;9.30;99.60;;;;;;5027808;28;20040;-60
2022/03/14 00:13:34;;;;;;;17.52;11.07;;;9.30;99.90;;;;;;5023719;28;20017;-59
2022/03/14 00:15:59;;;;;;;20.15;10.95;;;9.20;96.90;;;;;;5031265;28;20025;-56
2022/03/14 00:18:27;;;;;;;15.98;10.10;;;9.20;96.00;;;;;;5026476;28;20507;-57
2022/03/14 00:20:53;;;;;;;18.75;10.55;;;9.30;96.10;;;;;;5029883;28;20013;-59
2022/03/14 00:23:19;;;;;;;16.70;10.55;;;9.20;97.50;;;;;;5010951;28;20499;-59
2022/03/14 00:25:44;;;;;;;17.05;11.20;;;9.10;98.60;;;;;;5031081;28;20132;-61
2022/03/14 00:28:11;;;;;;;16.73;9.77;;;9.00;99.90;;;;;;5021924;28;20104;-60
2022/03/14 00:30:37;;;;;;;15.73;10.50;;;8.90;99.90;;;;;;4997393;28;20050;-57
2022/03/14 00:33:02;;;;;;;17.23;11.55;;;8.90;99.90;;;;;;5027084;28;20434;-59
2022/03/14 00:35:28;;;;;;;21.63;12.32;;;8.90;99.90;;;;;;5025730;28;20628;-58
2022/03/14 00:37:53;;;;;;;18.70;11.20;;;8.90;99.80;;;;;;5030229;28;20099;-61
2022/03/14 00:40:19;;;;;;;18.38;11.10;;;8.90;99.90;;;;;;5029206;28;20080;-58
2022/03/14 00:42:48;;;;;;;18.90;11.35;;;8.80;99.90;;;;;;5033686;23;20045;-59
2022/03/14 00:45:14;;;;;;;19.77;10.88;;;8.80;99.90;;;;;;5040952;28;20135;-59
2022/03/14 00:47:40;;;;;;;19.75;11.77;;;8.80;99.90;;;;;;5045640;28;20048;-58
2022/03/14 00:50:07;;;;;;;18.48;11.60;;;8.80;99.90;;;;;;5048570;28;20033;-61
2022/03/14 00:52:33;;;;;;;17.80;11.77;;;8.80;99.80;;;;;;5040375;28;20037;-61
2022/03/14 00:54:58;;;;;;;21.60;12.65;;;8.80;99.90;;;;;;5029005;28;20108;-59
2022/03/14 00:57:24;;;;;;;17.30;12.60;;;8.80;99.90;;;;;;5029109;28;20035;-59
2022/03/14 00:59:50;;;;;;;21.00;12.45;;;8.80;99.90;;;;;;5026154;28;20080;-59
2022/03/14 01:02:15;;;;;;;21.15;12.43;;;8.70;99.90;;;;;;5024982;28;20084;-59
2022/03/14 01:04:41;;;;;;;20.90;13.15;;;8.70;99.70;;;;;;5025985;28;20084;-59
2022/03/14 01:07:06;;;;;;;21.42;13.55;;;8.60;99.90;;;;;;5028621;28;20029;-59
2022/03/14 01:09:33;;;;;;;21.17;13.30;;;8.60;99.90;;;;;;5029697;28;20033;-59
2022/03/14 01:11:59;;;;;;;18.00;10.90;;;8.70;99.90;;;;;;5027224;28;20026;-59
2022/03/14 01:14:25;;;;;;;22.30;12.00;;;8.60;99.90;;;;;;5026399;28;20032;-59
2022/03/14 01:16:50;;;;;;;16.02;10.35;;;8.70;99.90;;;;;;5027845;28;20080;-60
2022/03/14 01:19:17;;;;;;;16.75;11.45;;;8.70;99.90;;;;;;5028631;28;20025;-59
2022/03/14 01:21:43;;;;;;;18.65;9.88;;;8.80;99.90;;;;;;5030304;28;20052;-58
2022/03/14 01:24:08;;;;;;;16.15;10.35;;;8.80;99.90;;;;;;5011824;28;20045;-60
2022/03/14 01:26:34;;;;;;;22.73;11.02;;;8.90;99.90;;;;;;5030144;28;20025;-59
2022/03/14 01:29:01;;;;;;;19.48;11.38;;;8.80;99.90;;;;;;5028335;28;20033;-59
2022/03/14 01:31:27;;;;;;;19.88;11.15;;;8.80;99.90;;;;;;5004403;28;20415;-58
2022/03/14 01:33:53;;;;;;;18.13;11.48;;;8.80;99.90;;;;;;5018774;28;20076;-59
2022/03/14 01:36:18;;;;;;;18.40;11.43;;;8.80;99.90;;;;;;5025282;28;20068;-60
2022/03/14 01:38:44;;;;;;;20.23;11.80;;;8.80;99.90;;;;;;5018881;28;20079;-60
2022/03/14 01:41:10;;;;;;;21.40;12.68;;;8.70;99.90;;;;;;5028413;28;20033;-59
2022/03/14 01:43:36;;;;;;;19.35;12.85;;;8.70;99.90;;;;;;5023637;28;20029;-60
2022/03/14 01:46:02;;;;;;;19.73;12.65;;;8.60;99.90;;;;;;5029658;28;20454;-59
2022/03/14 01:48:28;;;;;;;20.23;13.15;;;8.60;99.90;;;;;;5019811;28;20498;-59
2022/03/14 01:50:54;;;;;;;24.92;12.30;;;8.50;99.90;;;;;;5028985;28;20079;-60
2022/03/14 01:53:20;;;;;;;23.08;13.55;;;8.50;99.90;;;;;;5018446;28;20048;-59
2022/03/14 01:55:48;;;;;;;23.73;13.43;;;8.50;99.90;;;;;;5005244;28;20040;-59
2022/03/14 01:58:16;;;;;;;21.77;13.32;;;8.40;99.90;;;;;;5012528;28;20029;-59
2022/03/14 02:00:43;;;;;;;24.00;13.27;;;8.40;99.90;;;;;;5018176;28;20049;-59
2022/03/14 02:03:09;;;;;;;26.45;13.68;;;8.40;99.90;;;;;;5027782;28;20048;-59
2022/03/14 02:05:36;;;;;;;24.98;14.13;;;8.30;99.90;;;;;;5028334;28;20057;-58
2022/03/14 02:08:02;;;;;;;26.75;15.20;;;8.30;99.90;;;;;;5020783;28;20063;-59
2022/03/14 02:10:28;;;;;;;26.80;14.55;;;8.30;99.90;;;;;;5027690;28;20360;-58
2022/03/14 02:12:54;;;;;;;24.35;14.52;;;8.30;99.90;;;;;;5018081;28;20037;-59
2022/03/14 02:15:20;;;;;;;22.88;14.10;;;8.20;99.90;;;;;;5028157;28;20491;-59
2022/03/14 02:17:45;;;;;;;24.90;14.10;;;8.20;99.90;;;;;;5028149;28;20026;-59
2022/03/14 02:20:11;;;;;;;25.40;14.43;;;8.10;99.90;;;;;;5028295;28;20033;-59
2022/03/14 02:22:36;;;;;;;20.60;12.45;;;8.10;99.90;;;;;;5017973;28;20026;-59
2022/03/14 02:25:07;;;;;;;27.85;13.73;;;8.10;99.90;;;;;;5006189;28;20050;-59
2022/03/14 02:27:33;;;;;;;21.83;13.73;;;8.10;99.90;;;;;;5022136;28;20434;-60
2022/03/14 02:29:58;;;;;;;24.70;14.30;;;8.10;99.90;;;;;;5001232;28;20034;-60
2022/03/14 02:32:24;;;;;;;22.77;13.63;;;8.00;99.90;;;;;;5023909;28;20062;-59
2022/03/14 02:34:49;;;;;;;30.35;14.65;;;8.00;99.90;;;;;;5022271;28;20033;-59
2022/03/14 02:37:15;;;;;;;20.00;12.95;;;8.00;99.90;;;;;;5024620;28;20033;-60
2022/03/14 02:39:41;;;;;;;18.52;11.82;;;8.00;99.90;;;;;;5024220;28;20068;-59
2022/03/14 02:42:06;;;;;;;18.35;11.93;;;8.00;99.90;;;;;;5014896;28;20025;-59
2022/03/14 02:44:32;;;;;;;19.73;12.40;;;8.00;99.90;;;;;;5018965;28;20028;-57
2022/03/14 02:46:58;;;;;;;22.70;11.68;;;8.00;99.90;;;;;;5025720;28;20017;-60
2022/03/14 02:49:23;;;;;;;21.50;12.85;;;8.00;99.90;;;;;;5023278;28;20044;-57
2022/03/14 02:51:51;;;;;;;22.70;13.10;;;8.00;99.90;;;;;;5021321;28;20375;-60
2022/03/14 02:54:16;;;;;;;21.60;14.10;;;8.00;99.90;;;;;;5026499;28;20025;-59
2022/03/14 02:56:42;;;;;;;29.05;15.07;;;8.00;99.90;;;;;;5028102;28;20057;-59
2022/03/14 02:59:08;;;;;;;27.83;14.27;;;7.90;99.90;;;;;;5023558;28;20033;-60
2022/03/14 03:01:34;;;;;;;25.83;14.68;;;7.90;99.90;;;;;;5028637;28;20033;-60
2022/03/14 03:04:00;;;;;;;20.98;12.40;;;7.90;99.90;;;;;;5024054;28;20105;-59
2022/03/14 03:06:26;;;;;;;20.70;12.25;;;7.90;99.90;;;;;;5028312;28;20477;-60
2022/03/14 03:08:53;;;;;;;23.00;12.30;;;7.90;99.90;;;;;;5023970;28;20477;-59
2022/03/14 03:11:21;;;;;;;17.33;11.52;;;7.90;99.90;;;;;;5027373;28;20037;-59
2022/03/14 03:13:47;;;;;;;23.20;13.32;;;8.00;99.90;;;;;;5023773;28;20064;-60
2022/03/14 03:16:15;;;;;;;21.13;12.80;;;7.90;99.90;;;;;;5011933;28;20714;-58
2022/03/14 03:18:41;;;;;;;18.65;11.07;;;8.00;99.90;;;;;;5019153;28;20057;-59
2022/03/14 03:21:07;;;;;;;17.65;10.52;;;7.90;99.90;;;;;;5027535;28;20107;-59
2022/03/14 03:23:35;;;;;;;17.25;10.45;;;8.00;99.90;;;;;;5024126;28;20029;-58
2022/03/14 03:26:02;;;;;;;17.70;10.98;;;8.00;99.90;;;;;;5027766;28;20106;-60
2022/03/14 03:28:28;;;;;;;20.20;9.98;;;8.00;99.90;;;;;;5019807;28;20051;-59
2022/03/14 03:30:54;;;;;;;19.00;10.73;;;8.10;99.90;;;;;;5012802;28;20049;-60
2022/03/14 03:33:19;;;;;;;14.70;9.57;;;8.10;99.90;;;;;;5025840;28;20491;-59
2022/03/14 03:35:45;;;;;;;15.80;9.57;;;8.10;99.90;;;;;;5028165;28;20087;-58
2022/03/14 03:38:10;;;;;;;16.70;9.48;;;8.10;99.90;;;;;;5021110;28;20092;-58
2022/03/14 03:40:36;;;;;;;18.10;8.88;;;8.10;99.90;;;;;;5027571;28;20029;-59
2022/03/14 03:43:01;;;;;;;14.60;8.75;;;8.10;99.90;;;;;;5021131;28;20021;-60
2022/03/14 03:45:27;;;;;;;17.63;9.80;;;8.10;99.90;;;;;;5028347;28;20076;-59
2022/03/14 03:47:54;;;;;;;15.02;9.15;;;8.10;99.90;;;;;;5027361;28;20051;-59
2022/03/14 03:50:20;;;;;;;16.77;10.60;;;8.00;99.90;;;;;;5027519;28;20053;-59
2022/03/14 03:52:46;;;;;;;21.70;9.93;;;8.10;99.90;;;;;;5022179;28;20100;-58
2022/03/14 03:55:12;;;;;;;19.83;11.45;;;8.10;99.90;;;;;;5027760;28;20035;-60
2022/03/14 03:57:37;;;;;;;16.02;10.40;;;8.00;99.90;;;;;;5018577;28;20048;-59
2022/03/14 04:00:05;;;;;;;14.35;9.35;;;8.00;99.90;;;;;;5031166;28;20026;-59
2022/03/14 04:02:35;;;;;;;15.98;10.25;;;8.10;99.90;;;;;;5024344;28;20041;-59
2022/03/14 04:05:02;;;;;;;15.00;10.02;;;8.00;99.90;;;;;;5030435;28;20026;-59
2022/03/14 04:07:29;;;;;;;17.90;10.25;;;8.00;99.90;;;;;;5023179;28;20109;-58
2022/03/14 04:09:56;;;;;;;15.90;10.00;;;8.00;99.90;;;;;;5028230;28;20060;-59
2022/03/14 04:12:28;;;;;;;14.75;10.00;;;8.00;99.90;;;;;;5030702;28;20037;-59
2022/03/14 04:14:56;;;;;;;16.80;9.60;;;8.00;99.90;;;;;;5026250;28;20025;-60
2022/03/14 04:17:24;;;;;;;17.25;9.77;;;8.00;99.90;;;;;;5028551;28;20036;-60
2022/03/14 04:19:52;;;;;;;14.80;8.38;;;7.90;99.90;;;;;;5027745;28;20073;-60
2022/03/14 04:22:19;;;;;;;12.55;8.30;;;7.90;99.90;;;;;;5026022;28;20112;-60
2022/03/14 04:24:45;;;;;;;17.30;9.98;;;7.90;99.90;;;;;;5022852;28;20037;-59
2022/03/14 04:27:11;;;;;;;13.40;8.95;;;7.90;99.90;;;;;;5028173;28;20073;-58
2022/03/14 04:29:36;;;;;;;13.90;9.15;;;7.90;99.90;;;;;;5027635;28;20535;-59
2022/03/14 04:32:02;;;;;;;17.38;8.75;;;7.90;99.90;;;;;;5003507;28;20049;-60
2022/03/14 04:34:28;;;;;;;15.80;8.68;;;7.90;99.90;;;;;;5030219;28;20037;-60
2022/03/14 04:36:53;;;;;;;12.65;8.18;;;7.90;99.90;;;;;;5028101;28;20052;-59
2022/03/14 04:39:20;;;;;;;15.75;7.93;;;7.90;99.90;;;;;;5030059;28;20036;-59
2022/03/14 04:41:46;;;;;;;15.25;8.75;;;7.90;99.90;;;;;;5030843;28;20025;-56
2022/03/14 04:44:12;;;;;;;11.77;7.85;;;7.90;99.90;;;;;;5022744;28;20099;-60
2022/03/14 04:46:37;;;;;;;12.82;8.18;;;7.90;99.90;;;;;;5032962;28;20032;-60
2022/03/14 04:49:04;;;;;;;13.95;7.72;;;7.90;99.90;;;;;;5027840;28;20499;-60
2022/03/14 04:51:31;;;;;;;12.88;7.38;;;7.90;99.90;;;;;;5029969;28;20029;-57
2022/03/14 04:53:57;;;;;;;16.35;6.32;;;7.90;99.90;;;;;;5023694;28;20135;-60
2022/03/14 04:56:22;;;;;;;13.38;6.03;;;7.90;99.90;;;;;;5031116;28;20053;-59
2022/03/14 04:58:48;;;;;;;10.68;5.78;;;7.90;99.90;;;;;;5024897;28;20033;-58
2022/03/14 05:01:14;;;;;;;8.43;4.68;;;7.90;99.90;;;;;;5030246;28;20391;-60
2022/03/14 05:03:39;;;;;;;7.15;4.40;;;8.00;99.90;;;;;;5026401;28;20208;-59
2022/03/14 05:06:05;;;;;;;8.05;4.38;;;8.00;99.90;;;;;;5030477;28;20080;-59
2022/03/14 05:08:30;;;;;;;10.02;4.80;;;8.00;99.90;;;;;;5019606;28;20033;-58
2022/03/14 05:10:57;;;;;;;8.27;4.65;;;8.00;99.90;;;;;;5029460;28;20037;-58
2022/03/14 05:13:23;;;;;;;11.45;4.38;;;8.00;99.90;;;;;;5026230;28;20097;-58
2022/03/14 05:15:49;;;;;;;8.05;4.95;;;8.00;99.90;;;;;;5028203;28;20657;-59
2022/03/14 05:18:14;;;;;;;9.90;4.82;;;8.00;99.90;;;;;;5025251;28;20022;-59
2022/03/14 05:20:40;;;;;;;8.13;5.20;;;8.00;99.90;;;;;;5029041;28;20081;-59
2022/03/14 05:23:06;;;;;;;9.93;4.80;;;7.90;99.90;;;;;;5018444;28;20032;-58
2022/03/14 05:25:32;;;;;;;10.65;5.55;;;8.00;99.90;;;;;;5027725;28;20455;-59
2022/03/14 05:27:57;;;;;;;9.60;5.40;;;8.00;99.90;;;;;;5029757;28;20120;-59
2022/03/14 05:30:24;;;;;;;10.20;6.07;;;8.00;99.90;;;;;;5004273;28;20040;-59
2022/03/14 05:32:50;;;;;;;10.52;7.13;;;8.00;99.90;;;;;;5025181;28;20117;-59
2022/03/14 05:35:16;;;;;;;10.63;5.95;;;8.00;99.90;;;;;;5029967;28;20438;-59
2022/03/14 05:37:43;;;;;;;10.35;6.45;;;7.90;99.90;;;;;;5027184;28;20083;-59
2022/03/14 05:40:10;;;;;;;11.70;5.97;;;7.90;99.90;;;;;;5029978;28;20048;-59
2022/03/14 05:42:35;;;;;;;15.65;7.05;;;7.90;99.90;;;;;;5023290;28;20025;-60
2022/03/14 05:45:01;;;;;;;10.55;6.15;;;7.90;99.90;;;;;;5028419;28;20033;-59
2022/03/14 05:47:26;;;;;;;13.20;8.02;;;7.90;99.90;;;;;;5023476;28;20163;-58
2022/03/14 05:49:52;;;;;;;11.65;7.25;;;7.90;99.90;;;;;;5026732;28;20045;-60
2022/03/14 05:52:19;;;;;;;12.30;7.18;;;7.90;99.90;;;;;;5024538;28;20030;-60
2022/03/14 05:54:45;;;;;;;12.90;7.18;;;7.90;99.90;;;;;;5027773;28;20096;-60
2022/03/14 05:57:10;;;;;;;13.18;7.82;;;7.90;99.90;;;;;;5025232;28;20553;-59
2022/03/14 05:59:36;;;;;;;13.05;7.70;;;7.90;99.90;;;;;;5028102;28;20033;-60
2022/03/14 06:02:02;;;;;;;13.43;8.02;;;7.90;99.90;;;;;;5026919;28;20022;-59
2022/03/14 06:04:28;;;;;;;14.23;8.30;;;7.90;99.90;;;;;;5024847;28;20029;-59
2022/03/14 06:06:53;;;;;;;14.52;8.75;;;7.90;99.90;;;;;;5027326;28;20396;-63
2022/03/14 06:09:19;;;;;;;12.88;9.23;;;7.90;99.90;;;;;;5023327;28;20055;-59
2022/03/14 06:11:46;;;;;;;21.27;9.00;;;7.80;99.90;;;;;;5029563;28;20120;-62
2022/03/14 06:14:12;;;;;;;15.55;9.95;;;7.80;99.90;;;;;;5027664;28;20488;-58
2022/03/14 06:16:38;;;;;;;16.33;8.95;;;7.90;99.90;;;;;;5028189;28;20045;-58
2022/03/14 06:19:04;;;;;;;13.23;8.50;;;7.90;99.90;;;;;;5026145;28;20043;-59
2022/03/14 06:21:29;;;;;;;13.27;8.70;;;7.90;99.90;;;;;;5028600;28;20029;-57
2022/03/14 06:23:55;;;;;;;13.60;8.73;;;7.90;99.90;;;;;;5022831;28;20033;-57
2022/03/14 06:26:20;;;;;;;16.63;10.40;;;7.90;99.90;;;;;;5028832;28;20029;-59
2022/03/14 06:28:46;;;;;;;13.05;8.20;;;7.90;99.90;;;;;;5020217;28;20091;-58
2022/03/14 06:31:12;;;;;;;13.00;8.07;;;7.90;99.90;;;;;;5003362;28;20067;-59
2022/03/14 06:33:38;;;;;;;14.25;8.80;;;8.00;99.90;;;;;;5018455;28;20044;-60
2022/03/14 06:36:04;;;;;;;11.52;8.23;;;8.00;99.90;;;;;;5028125;28;20537;-58
2022/03/14 06:38:31;;;;;;;12.73;8.35;;;8.00;99.90;;;;;;5026749;28;20418;-60
2022/03/14 06:40:57;;;;;;;12.07;7.60;;;8.00;99.90;;;;;;5029774;28;20037;-58
2022/03/14 06:43:24;;;;;;;11.50;7.10;;;8.00;99.90;;;;;;4982173;28;20442;-57
2022/03/14 06:45:50;;;;;;;13.00;7.93;;;8.10;99.90;;;;;;5010125;28;20468;-58
2022/03/14 06:48:16;;;;;;;10.27;6.68;;;8.10;99.90;;;;;;5010620;28;20100;-59
2022/03/14 06:50:41;;;;;;;11.20;6.90;;;8.10;99.90;;;;;;5009312;28;20029;-59
2022/03/14 06:53:07;;;;;;;12.98;7.38;;;8.10;99.90;;;;;;5006562;28;20045;-60
2022/03/14 06:55:33;;;;;;;11.15;6.85;;;8.10;99.90;;;;;;5017120;28;20439;-59
2022/03/14 06:57:59;;;;;;;9.27;6.13;;;8.10;99.90;;;;;;5009565;28;20041;-56
2022/03/14 07:00:27;;;;;;;9.45;6.40;;;8.20;99.90;;;;;;5009200;28;20052;-60
2022/03/14 07:02:52;;;;;;;8.98;5.85;;;8.20;99.90;;;;;;4999312;28;20022;-58
2022/03/14 07:05:20;;;;;;;9.35;5.78;;;8.20;99.90;;;;;;4997540;28;20030;-58
2022/03/14 07:07:46;;;;;;;8.48;5.95;;;8.20;99.90;;;;;;5004686;28;20034;-60
2022/03/14 07:10:16;;;;;;;11.25;6.13;;;8.20;99.90;;;;;;5008434;28;20022;-59
2022/03/14 07:12:46;;;;;;;14.88;7.40;;;8.30;99.90;;;;;;5006303;28;20044;-57
2022/03/14 07:15:16;;;;;;;11.48;7.03;;;8.30;99.90;;;;;;4990388;28;20026;-58
2022/03/14 07:17:42;;;;;;;8.27;6.18;;;8.30;99.90;;;;;;5000828;28;20021;-60
2022/03/14 07:20:09;;;;;;;12.68;6.60;;;8.30;99.90;;;;;;4995240;28;20030;-59
2022/03/14 07:22:51;;;;;;;10.60;6.95;;;8.30;99.90;;;;;;5001585;28;20599;-60
2022/03/14 07:25:21;;;;;;;15.45;6.38;;;8.40;99.90;;;;;;5009019;28;20105;-60
2022/03/14 07:27:47;;;;;;;12.38;7.18;;;8.40;99.90;;;;;;4999429;28;20452;-60
2022/03/14 07:30:14;;;;;;;13.65;7.03;;;8.40;99.90;;;;;;4994034;28;20101;-59
2022/03/14 07:32:39;;;;;;;7.47;5.97;;;8.50;99.90;;;;;;4983180;28;20042;-60
2022/03/14 07:35:05;;;;;;;13.23;7.22;;;8.60;99.90;;;;;;5011638;28;20040;-59
2022/03/14 07:37:31;;;;;;;9.55;6.13;;;8.60;99.90;;;;;;5010779;28;20092;-60
2022/03/14 07:39:56;;;;;;;9.30;6.13;;;8.70;99.90;;;;;;5006986;28;20112;-59
2022/03/14 07:42:22;;;;;;;9.40;5.72;;;8.70;99.90;;;;;;5006722;28;20029;-60
2022/03/14 07:44:48;;;;;;;10.57;6.15;;;8.80;99.90;;;;;;5011983;28;20373;-58
2022/03/14 07:47:14;;;;;;;8.23;5.10;;;8.80;99.90;;;;;;5010520;28;20033;-60
2022/03/14 07:49:39;;;;;;;9.82;5.75;;;9.00;99.90;;;;;;5012137;28;20033;-60
2022/03/14 07:52:06;;;;;;;6.68;4.82;;;9.10;99.90;;;;;;5008967;28;20512;-59
2022/03/14 07:54:32;;;;;;;8.00;5.38;;;9.10;99.90;;;;;;5011246;28;20025;-59
2022/03/14 07:56:58;;;;;;;7.85;4.28;;;9.20;99.90;;;;;;5010340;28;20045;-60
2022/03/14 07:59:23;;;;;;;11.80;5.45;;;9.20;99.90;;;;;;5022190;28;20478;-59
2022/03/14 08:01:49;;;;;;;7.97;4.30;;;9.30;99.90;;;;;;5016950;28;20022;-60
2022/03/14 08:04:14;;;;;;;13.43;7.38;;;9.50;99.90;;;;;;5018929;28;20033;-59
2022/03/14 08:06:43;;;;;;;14.45;7.30;;;9.70;99.90;;;;;;5017493;28;20026;-60
2022/03/14 08:09:08;;;;;;;56.47;35.78;;;9.80;99.90;;;;;;5007747;28;20599;-59
2022/03/14 08:11:35;;;;;;;17.35;11.82;;;9.80;99.90;;;;;;5010690;28;20139;-59
2022/03/14 08:14:02;;;;;;;8.25;5.32;;;9.90;99.90;;;;;;5004354;28;20033;-59
2022/03/14 08:16:28;;;;;;;8.88;4.35;;;9.90;99.90;;;;;;5005442;28;20049;-60
2022/03/14 08:18:53;;;;;;;9.05;4.53;;;10.00;99.90;;;;;;5003267;28;20026;-59
2022/03/14 08:21:19;;;;;;;6.38;4.53;;;10.00;99.90;;;;;;5003973;28;20029;-59
2022/03/14 08:23:46;;;;;;;11.30;4.65;;;10.10;99.90;;;;;;5010023;28;20034;-60
2022/03/14 08:26:11;;;;;;;7.80;4.68;;;10.10;99.90;;;;;;5000391;28;20497;-59
2022/03/14 08:28:38;;;;;;;25.50;19.10;;;10.00;99.90;;;;;;5009362;28;20109;-60
2022/03/14 08:31:04;;;;;;;9.00;5.22;;;9.90;99.90;;;;;;5011811;28;20574;-60
2022/03/14 08:33:29;;;;;;;10.82;5.45;;;9.90;99.90;;;;;;4972293;28;20034;-58
2022/03/14 08:36:00;;;;;;;21.58;9.32;;;9.80;99.90;;;;;;5006464;28;20037;-60
2022/03/14 08:38:26;;;;;;;67.90;28.50;;;9.80;99.90;;;;;;5008626;28;20034;-60
2022/03/14 08:40:51;;;;;;;25.55;12.88;;;9.70;99.90;;;;;;5013053;28;20108;-60
2022/03/14 08:43:17;;;;;;;17.42;9.00;;;9.70;99.90;;;;;;5012198;28;20116;-60
2022/03/14 08:45:45;;;;;;;10.07;5.47;;;9.80;99.90;;;;;;5009731;28;20041;-60
2022/03/14 08:48:11;;;;;;;90.15;38.38;;;9.80;99.90;;;;;;5014970;28;20044;-58
2022/03/14 08:50:38;;;;;;;18.23;8.95;;;9.80;99.90;;;;;;5020196;28;20029;-59
2022/03/14 08:53:04;;;;;;;29.67;11.68;;;9.80;99.90;;;;;;5003936;28;20116;-60
2022/03/14 08:55:30;;;;;;;72.40;25.60;;;9.90;99.90;;;;;;5011153;28;20034;-60
2022/03/14 08:57:56;;;;;;;41.55;19.90;;;10.00;99.90;;;;;;5004292;28;20026;-60
2022/03/14 09:00:25;;;;;;;20.58;6.55;;;10.20;99.90;;;;;;5010938;28;20048;-61
2022/03/14 09:02:51;;;;;;;45.22;19.80;;;10.40;99.90;;;;;;5000868;28;20492;-60
2022/03/14 09:05:17;;;;;;;23.02;12.68;;;10.50;99.90;;;;;;4994709;28;20041;-59
2022/03/14 09:07:43;;;;;;;97.60;39.40;;;10.60;99.90;;;;;;5001915;28;20026;-60
2022/03/14 09:10:12;;;;;;;20.15;8.23;;;10.70;99.90;;;;;;5010730;28;20030;-60
2022/03/14 09:12:39;;;;;;;34.80;17.17;;;10.90;99.90;;;;;;5007718;28;20026;-62
2022/03/14 09:15:07;;;;;;;31.05;14.60;;;10.90;99.90;;;;;;5010619;28;20247;-60
2022/03/14 09:17:35;;;;;;;16.00;7.68;;;11.00;99.90;;;;;;5008530;28;20435;-59
2022/03/14 09:20:01;;;;;;;12.43;6.75;;;11.00;99.90;;;;;;5010397;28;20029;-60
2022/03/14 09:22:28;;;;;;;16.88;9.27;;;11.00;99.90;;;;;;5002246;28;20048;-60
2022/03/14 09:24:55;;;;;;;8.18;4.40;;;10.90;99.90;;;;;;5000075;28;20057;-59
2022/03/14 09:27:21;;;;;;;7.50;3.47;;;10.90;99.90;;;;;;5008240;28;20131;-60
2022/03/14 09:29:47;;;;;;;7.45;3.17;;;10.80;99.90;;;;;;5003766;28;20472;-60
2022/03/14 09:32:13;;;;;;;6.30;2.67;;;10.80;99.90;;;;;;4976911;28;20092;-58
2022/03/14 09:34:39;;;;;;;6.10;2.20;;;10.70;99.90;;;;;;4998827;28;20037;-60
2022/03/14 09:37:05;;;;;;;5.90;2.33;;;10.80;99.90;;;;;;5002047;28;20534;-59
2022/03/14 09:39:32;;;;;;;7.65;2.63;;;10.90;99.90;;;;;;5005464;28;20030;-60
2022/03/14 09:42:00;;;;;;;11.13;2.53;;;11.00;99.90;;;;;;5005083;28;20030;-60
2022/03/14 09:44:29;;;;;;;6.45;2.95;;;11.10;99.90;;;;;;5006717;28;20089;-60
2022/03/14 09:46:58;;;;;;;10.25;2.78;;;11.20;99.90;;;;;;5003345;28;20029;-59
2022/03/14 09:49:26;;;;;;;12.70;5.65;;;11.10;99.90;;;;;;4998910;28;20034;-60
2022/03/14 09:51:53;;;;;;;8.05;3.15;;;11.20;99.90;;;;;;5004056;28;20049;-60
2022/03/14 09:54:21;;;;;;;7.05;3.00;;;11.30;99.90;;;;;;5008019;28;20411;-60
2022/03/14 09:56:48;;;;;;;8.43;3.28;;;11.30;99.90;;;;;;5008365;28;20041;-60
2022/03/14 09:59:14;;;;;;;5.28;2.30;;;11.20;99.90;;;;;;4992468;28;20019;-59
2022/03/14 10:01:41;;;;;;;7.70;2.33;;;11.30;99.90;;;;;;5003337;28;20065;-60
2022/03/14 10:04:10;;;;;;;8.68;2.88;;;11.30;99.90;;;;;;5005255;28;20100;-59
2022/03/14 10:06:40;;;;;;;8.43;2.78;;;11.20;99.90;;;;;;5006012;28;20054;-58
2022/03/14 10:09:06;;;;;;;10.10;2.42;;;11.00;99.90;;;;;;5008409;28;20080;-60
2022/03/14 10:11:31;;;;;;;12.15;6.18;;;11.10;99.90;;;;;;5009032;28;20058;-59
2022/03/14 10:13:57;;;;;;;18.73;9.23;;;11.10;99.90;;;;;;5009184;28;20061;-60
2022/03/14 10:16:25;;;;;;;28.98;14.80;;;11.10;99.90;;;;;;5010069;28;20034;-60
2022/03/14 10:19:01;;;;;;;13.15;4.65;;;11.20;99.90;;;;;;5007196;28;20056;-60
2022/03/14 10:21:38;;;;;;;13.93;6.72;;;11.30;99.90;;;;;;5005266;28;20105;-60
2022/03/14 10:24:06;;;;;;;11.63;5.15;;;11.50;99.90;;;;;;4999751;28;20372;-60
2022/03/14 10:26:33;;;;;;;16.92;7.57;;;11.60;99.90;;;;;;4992124;28;20061;-59
2022/03/14 10:29:00;;;;;;;31.20;13.18;;;11.90;99.90;;;;;;5001037;28;20041;-60
2022/03/14 10:31:36;;;;;;;21.75;10.02;;;12.10;99.90;;;;;;5001352;28;20084;-59
2022/03/14 10:34:13;;;;;;;16.48;6.75;;;12.50;99.90;;;;;;4974378;28;20049;-60
2022/03/14 10:36:45;;;;;;;10.70;5.30;;;12.50;99.90;;;;;;5006523;28;20508;-61
2022/03/14 10:39:16;;;;;;;24.08;10.82;;;12.80;99.90;;;;;;5005293;28;20026;-61
2022/03/14 10:41:45;;;;;;;31.95;16.42;;;12.90;99.90;;;;;;5009837;28;20115;-60
2022/03/14 10:44:22;;;;;;;12.25;6.40;;;12.80;99.90;;;;;;5004416;28;20025;-60
2022/03/14 10:46:48;;;;;;;14.30;6.43;;;12.60;99.90;;;;;;5008760;28;20033;-59
2022/03/14 10:49:15;;;;;;;9.60;4.10;;;12.40;99.90;;;;;;4999343;28;20485;-60
2022/03/14 10:51:58;;;;;;;11.95;5.72;;;12.20;99.90;;;;;;4997912;28;20516;-60
2022/03/14 10:54:23;;;;;;;51.63;21.02;;;12.10;99.90;;;;;;4991704;28;20035;-60
2022/03/14 10:57:11;;;;;;;114.47;46.50;;;11.80;99.90;;;;;;5018858;28;20075;-60
2022/03/14 10:59:36;;;;;;;18.75;9.93;;;11.70;99.90;;;;;;5016592;28;20112;-60
2022/03/14 11:02:04;;;;;;;19.52;9.80;;;11.70;99.90;;;;;;5020896;28;20184;-59
2022/03/14 11:04:40;;;;;;;4.88;2.58;;;11.70;99.90;;;;;;5025770;28;20442;-60
2022/03/14 11:07:05;;;;;;;51.78;27.05;;;11.70;99.90;;;;;;5028203;28;20042;-59
2022/03/14 11:09:39;;;;;;;7.95;3.80;;;11.80;99.90;;;;;;5026205;28;20556;-59
2022/03/14 11:12:09;;;;;;;10.88;2.90;;;11.90;99.90;;;;;;5025907;28;20117;-60
2022/03/14 11:14:36;;;;;;;8.30;2.85;;;12.00;99.90;;;;;;5023925;28;20045;-60
2022/03/14 11:17:19;;;;;;;5.28;2.20;;;12.10;99.90;;;;;;5030546;28;20151;-60
2022/03/14 11:19:45;;;;;;;3.92;2.13;;;12.00;99.90;;;;;;5018859;28;20372;-59
2022/03/14 11:22:14;;;;;;;8.88;3.25;;;12.00;99.90;;;;;;5029221;28;20063;-59
2022/03/14 11:24:44;;;;;;;12.63;4.95;;;12.00;99.90;;;;;;5037293;28;20036;-59
2022/03/14 11:27:23;;;;;;;12.55;2.22;;;12.10;99.90;;;;;;5001797;28;20073;-58
2022/03/14 11:29:51;;;;;;;5.68;2.70;;;12.10;99.90;;;;;;5019139;28;20040;-59
2022/03/14 11:32:17;;;;;;;8.55;3.08;;;12.40;99.90;;;;;;5029750;28;20120;-59
2022/03/14 11:34:45;;;;;;;13.23;6.93;;;12.60;99.90;;;;;;5004643;28;20176;-59
2022/03/14 11:37:12;;;;;;;24.17;14.55;;;12.70;99.90;;;;;;5005666;28;20128;-59
2022/03/14 11:39:37;;;;;;;45.08;33.72;;;12.90;99.90;;;;;;5012870;28;20030;-59
2022/03/14 11:42:04;;;;;;;12.85;9.93;;;12.70;99.90;;;;;;5010112;28;20041;-58
2022/03/14 11:44:30;;;;;;;12.02;6.70;;;12.50;99.90;;;;;;4994882;28;20041;-60
2022/03/14 11:46:58;;;;;;;8.80;3.20;;;12.40;99.90;;;;;;5020651;28;20026;-59
2022/03/14 11:49:26;;;;;;;8.35;3.80;;;12.20;99.90;;;;;;5012870;28;20400;-59
2022/03/14 11:52:23;;;;;;;7.68;2.92;;;12.00;99.90;;;;;;5011288;28;20034;-58
2022/03/14 11:55:00;;;;;;;4.57;2.75;;;11.90;99.90;;;;;;5010490;28;20728;-60
2022/03/14 11:57:43;;;;;;;6.97;3.10;;;11.60;99.90;;;;;;5011803;28;20030;-60
2022/03/14 12:00:32;;;;;;;8.05;3.38;;;11.50;99.90;;;;;;5001522;28;20026;-59
2022/03/14 12:03:01;;;;;;;9.30;4.53;;;11.40;99.90;;;;;;5005039;28;20033;-59
2022/03/14 12:05:32;;;;;;;28.15;12.70;;;11.50;99.90;;;;;;5011104;28;21880;-60
2022/03/14 12:08:10;;;;;;;9.95;4.50;;;11.60;99.90;;;;;;5010322;28;20033;-60
2022/03/14 12:10:36;;;;;;;5.55;2.47;;;11.80;99.90;;;;;;5022226;28;20110;-59
2022/03/14 12:13:02;;;;;;;4.07;2.00;;;11.90;99.90;;;;;;5007207;28;20169;-59
2022/03/14 12:15:42;;;;;;;6.82;1.85;;;11.90;99.90;;;;;;4997614;28;20056;-59
2022/03/14 12:18:23;;;;;;;4.18;2.15;;;12.20;99.90;;;;;;5030241;28;20044;-60
2022/03/14 12:21:31;;;;;;;6.75;2.22;;;12.20;99.90;;;;;;4983141;28;20038;-59
2022/03/14 12:23:56;;;;;;;22.65;6.88;;;12.30;99.90;;;;;;4993998;28;20022;-60
2022/03/14 12:26:24;;;;;;;8.82;4.00;;;12.40;99.90;;;;;;4990027;28;20053;-60
2022/03/14 12:28:52;;;;;;;15.32;5.30;;;12.20;99.90;;;;;;5002596;28;20111;-60
2022/03/14 12:31:18;;;;;;;4.63;2.50;;;12.10;99.90;;;;;;5011299;28;20037;-60
2022/03/14 12:33:45;;;;;;;5.35;2.75;;;11.90;99.90;;;;;;4982470;28;20041;-60
2022/03/14 12:36:22;;;;;;;16.48;8.52;;;11.70;99.90;;;;;;5011623;28;20037;-60
2022/03/14 12:39:06;;;;;;;64.20;30.10;;;11.70;99.90;;;;;;5002349;28;20029;-60
2022/03/14 12:41:32;;;;;;;22.27;10.82;;;11.50;99.90;;;;;;5003548;28;20105;-59
2022/03/14 12:43:58;;;;;;;22.63;12.38;;;11.50;99.90;;;;;;5008925;28;20036;-59